sensor_id;sensor_type;location;lat;lon;timestamp;pressure;altitude;pressure_sealevel;temperature;humidity
70781;BME280;59514;48.810;2.134;2022-10-31T00:01:31;100709.19;;;14.57;87.52
70781;BME280;59514;48.810;2.134;2022-10-31T00:03:56;100711.91;;;14.57;86.84
70781;BME280;59514;48.810;2.134;2022-10-31T00:06:22;100706.88;;;14.49;86.96
70781;BME280;59514;48.810;2.134;2022-10-31T00:08:53;100712.38;;;14.54;87.47
70781;BME280;59514;48.810;2.134;2022-10-31T00:11:18;100710.00;;;14.58;87.01
70781;BME280;59514;48.810;2.134;2022-10-31T00:13:44;100722.59;;;14.52;86.93
70781;BME280;59514;48.810;2.134;2022-10-31T00:16:23;100718.88;;;14.42;87.68
70781;BME280;59514;48.810;2.134;2022-10-31T00:18:56;100714.34;;;14.31;87.61
70781;BME280;59514;48.810;2.134;2022-10-31T00:21:22;100715.03;;;14.26;88.37
70781;BME280;59514;48.810;2.134;2022-10-31T00:23:48;100707.31;;;14.18;87.76
70781;BME280;59514;48.810;2.134;2022-10-31T00:26:14;100708.84;;;14.14;88.21
70781;BME280;59514;48.810;2.134;2022-10-31T00:28:39;100706.38;;;14.13;87.96
70781;BME280;59514;48.810;2.134;2022-10-31T00:31:07;100711.91;;;14.06;88.32
70781;BME280;59514;48.810;2.134;2022-10-31T00:33:34;100714.16;;;14.09;89.21
70781;BME280;59514;48.810;2.134;2022-10-31T00:36:02;100712.06;;;14.00;88.39
70781;BME280;59514;48.810;2.134;2022-10-31T00:38:27;100711.72;;;13.96;88.65
70781;BME280;59514;48.810;2.134;2022-10-31T00:40:52;100706.09;;;13.86;89.77
70781;BME280;59514;48.810;2.134;2022-10-31T00:43:18;100712.44;;;13.80;89.55
70781;BME280;59514;48.810;2.134;2022-10-31T00:45:43;100704.94;;;13.82;90.74
70781;BME280;59514;48.810;2.134;2022-10-31T00:48:09;100703.75;;;13.90;89.76
70781;BME280;59514;48.810;2.134;2022-10-31T00:50:35;100702.44;;;13.92;89.43
70781;BME280;59514;48.810;2.134;2022-10-31T00:53:01;100698.22;;;13.96;89.44
70781;BME280;59514;48.810;2.134;2022-10-31T00:55:26;100699.97;;;14.02;89.79
70781;BME280;59514;48.810;2.134;2022-10-31T00:57:51;100705.94;;;14.16;88.92
70781;BME280;59514;48.810;2.134;2022-10-31T01:00:17;100708.38;;;14.17;89.44
70781;BME280;59514;48.810;2.134;2022-10-31T01:02:42;100701.31;;;14.16;88.70
70781;BME280;59514;48.810;2.134;2022-10-31T01:05:07;100699.50;;;14.05;88.99
70781;BME280;59514;48.810;2.134;2022-10-31T01:07:38;100691.16;;;14.07;88.63
70781;BME280;59514;48.810;2.134;2022-10-31T01:10:05;100682.34;;;14.11;89.36
70781;BME280;59514;48.810;2.134;2022-10-31T01:12:38;100675.66;;;14.14;88.61
70781;BME280;59514;48.810;2.134;2022-10-31T01:15:04;100675.84;;;14.12;88.72
70781;BME280;59514;48.810;2.134;2022-10-31T01:17:30;100668.91;;;14.16;88.02
70781;BME280;59514;48.810;2.134;2022-10-31T01:19:55;100665.88;;;14.13;88.63
70781;BME280;59514;48.810;2.134;2022-10-31T01:22:21;100658.03;;;14.11;88.06
70781;BME280;59514;48.810;2.134;2022-10-31T01:24:46;100660.41;;;14.08;87.70
70781;BME280;59514;48.810;2.134;2022-10-31T01:27:11;100656.63;;;14.09;87.90
70781;BME280;59514;48.810;2.134;2022-10-31T01:29:37;100657.91;;;14.06;88.36
70781;BME280;59514;48.810;2.134;2022-10-31T01:32:02;100649.44;;;14.14;87.73
70781;BME280;59514;48.810;2.134;2022-10-31T01:34:28;100655.75;;;14.20;88.33
70781;BME280;59514;48.810;2.134;2022-10-31T01:36:53;100653.41;;;14.23;87.49
70781;BME280;59514;48.810;2.134;2022-10-31T01:39:19;100654.94;;;14.19;88.03
70781;BME280;59514;48.810;2.134;2022-10-31T01:41:48;100654.78;;;14.26;87.45
70781;BME280;59514;48.810;2.134;2022-10-31T01:46:48;100645.31;;;14.23;87.78
70781;BME280;59514;48.810;2.134;2022-10-31T01:51:51;100635.84;;;14.09;89.43
70781;BME280;59514;48.810;2.134;2022-10-31T01:54:20;100632.66;;;14.12;88.68
70781;BME280;59514;48.810;2.134;2022-10-31T01:56:49;100638.25;;;14.22;88.08
70781;BME280;59514;48.810;2.134;2022-10-31T01:59:20;100640.47;;;14.25;87.97
70781;BME280;59514;48.810;2.134;2022-10-31T02:01:47;100639.78;;;14.18;88.32
70781;BME280;59514;48.810;2.134;2022-10-31T02:04:15;100637.59;;;14.15;88.49
70781;BME280;59514;48.810;2.134;2022-10-31T02:06:45;100644.19;;;14.08;88.66
70781;BME280;59514;48.810;2.134;2022-10-31T02:09:13;100641.34;;;14.14;89.02
70781;BME280;59514;48.810;2.134;2022-10-31T02:11:40;100639.13;;;14.11;88.59
70781;BME280;59514;48.810;2.134;2022-10-31T02:14:06;100637.00;;;14.13;88.27
70781;BME280;59514;48.810;2.134;2022-10-31T02:16:31;100633.66;;;14.23;88.57
70781;BME280;59514;48.810;2.134;2022-10-31T02:18:57;100624.97;;;14.32;88.04
70781;BME280;59514;48.810;2.134;2022-10-31T02:24:40;100630.03;;;14.29;87.97
70781;BME280;59514;48.810;2.134;2022-10-31T02:27:26;100614.91;;;14.16;88.55
70781;BME280;59514;48.810;2.134;2022-10-31T02:35:17;100613.28;;;14.15;88.84
70781;BME280;59514;48.810;2.134;2022-10-31T02:38:23;100610.53;;;14.27;87.99
70781;BME280;59514;48.810;2.134;2022-10-31T02:43:24;100600.50;;;14.11;89.00
70781;BME280;59514;48.810;2.134;2022-10-31T02:45:58;100596.50;;;14.13;88.53
70781;BME280;59514;48.810;2.134;2022-10-31T02:48:27;100589.81;;;14.16;89.43
70781;BME280;59514;48.810;2.134;2022-10-31T02:50:59;100593.75;;;14.25;88.82
70781;BME280;59514;48.810;2.134;2022-10-31T02:53:25;100595.50;;;14.31;88.89
70781;BME280;59514;48.810;2.134;2022-10-31T02:55:56;100596.91;;;14.33;88.56
70781;BME280;59514;48.810;2.134;2022-10-31T02:58:26;100593.06;;;14.29;87.82
70781;BME280;59514;48.810;2.134;2022-10-31T03:03:36;100588.09;;;14.26;88.70
70781;BME280;59514;48.810;2.134;2022-10-31T03:08:55;100582.50;;;14.16;89.07
70781;BME280;59514;48.810;2.134;2022-10-31T03:11:31;100580.72;;;14.22;88.98
70781;BME280;59514;48.810;2.134;2022-10-31T03:16:50;100579.94;;;14.38;88.87
70781;BME280;59514;48.810;2.134;2022-10-31T03:19:23;100578.78;;;14.34;88.87
70781;BME280;59514;48.810;2.134;2022-10-31T03:21:53;100570.25;;;14.25;88.13
70781;BME280;59514;48.810;2.134;2022-10-31T03:24:22;100565.34;;;14.22;88.63
70781;BME280;59514;48.810;2.134;2022-10-31T03:26:52;100563.22;;;14.24;88.42
70781;BME280;59514;48.810;2.134;2022-10-31T03:29:22;100565.44;;;14.27;88.48
70781;BME280;59514;48.810;2.134;2022-10-31T03:31:57;100561.78;;;14.33;88.49
70781;BME280;59514;48.810;2.134;2022-10-31T03:34:24;100553.75;;;14.38;88.46
70781;BME280;59514;48.810;2.134;2022-10-31T03:36:52;100557.03;;;14.40;87.88
70781;BME280;59514;48.810;2.134;2022-10-31T03:39:21;100550.16;;;14.33;87.60
70781;BME280;59514;48.810;2.134;2022-10-31T03:41:57;100536.34;;;14.29;88.42
70781;BME280;59514;48.810;2.134;2022-10-31T03:44:26;100536.41;;;14.34;87.78
70781;BME280;59514;48.810;2.134;2022-10-31T03:46:52;100537.69;;;14.32;88.46
70781;BME280;59514;48.810;2.134;2022-10-31T03:49:18;100525.41;;;14.24;88.17
70781;BME280;59514;48.810;2.134;2022-10-31T03:54:44;100526.69;;;14.22;88.75
70781;BME280;59514;48.810;2.134;2022-10-31T03:59:55;100525.41;;;14.24;88.02
70781;BME280;59514;48.810;2.134;2022-10-31T04:02:27;100529.19;;;14.23;88.05
70781;BME280;59514;48.810;2.134;2022-10-31T04:04:55;100521.78;;;14.19;88.34
70781;BME280;59514;48.810;2.134;2022-10-31T04:07:21;100533.91;;;14.16;87.94
70781;BME280;59514;48.810;2.134;2022-10-31T04:09:51;100521.41;;;14.27;88.41
70781;BME280;59514;48.810;2.134;2022-10-31T04:12:18;100520.69;;;14.31;87.52
70781;BME280;59514;48.810;2.134;2022-10-31T04:14:47;100525.97;;;14.26;88.17
70781;BME280;59514;48.810;2.134;2022-10-31T04:17:16;100528.66;;;14.26;88.51
70781;BME280;59514;48.810;2.134;2022-10-31T04:19:42;100529.75;;;14.25;88.56
70781;BME280;59514;48.810;2.134;2022-10-31T04:22:07;100534.47;;;14.18;88.22
70781;BME280;59514;48.810;2.134;2022-10-31T04:24:33;100527.91;;;14.14;88.81
70781;BME280;59514;48.810;2.134;2022-10-31T04:26:58;100526.88;;;14.15;89.81
70781;BME280;59514;48.810;2.134;2022-10-31T04:29:23;100529.81;;;14.14;89.84
70781;BME280;59514;48.810;2.134;2022-10-31T04:31:49;100517.38;;;14.13;89.46
70781;BME280;59514;48.810;2.134;2022-10-31T04:34:15;100515.81;;;14.17;89.37
70781;BME280;59514;48.810;2.134;2022-10-31T04:36:40;100516.72;;;14.22;88.99
70781;BME280;59514;48.810;2.134;2022-10-31T04:39:05;100507.56;;;14.23;89.36
70781;BME280;59514;48.810;2.134;2022-10-31T04:41:30;100511.31;;;14.22;89.07
70781;BME280;59514;48.810;2.134;2022-10-31T04:43:56;100507.06;;;14.26;89.24
70781;BME280;59514;48.810;2.134;2022-10-31T04:46:21;100503.22;;;14.22;89.08
70781;BME280;59514;48.810;2.134;2022-10-31T04:48:46;100500.50;;;14.22;89.20
70781;BME280;59514;48.810;2.134;2022-10-31T04:51:12;100496.25;;;14.26;89.20
70781;BME280;59514;48.810;2.134;2022-10-31T04:53:37;100483.84;;;14.25;89.41
70781;BME280;59514;48.810;2.134;2022-10-31T04:56:03;100478.44;;;14.25;90.16
70781;BME280;59514;48.810;2.134;2022-10-31T04:58:28;100489.34;;;14.30;89.96
70781;BME280;59514;48.810;2.134;2022-10-31T05:00:55;100487.78;;;14.34;89.92
70781;BME280;59514;48.810;2.134;2022-10-31T05:03:21;100485.34;;;14.33;89.47
70781;BME280;59514;48.810;2.134;2022-10-31T05:05:47;100484.34;;;14.39;89.47
70781;BME280;59514;48.810;2.134;2022-10-31T05:08:13;100483.28;;;14.40;89.21
70781;BME280;59514;48.810;2.134;2022-10-31T05:10:38;100475.41;;;14.38;90.02
70781;BME280;59514;48.810;2.134;2022-10-31T05:13:04;100461.34;;;14.36;90.29
70781;BME280;59514;48.810;2.134;2022-10-31T05:15:30;100464.88;;;14.37;90.83
70781;BME280;59514;48.810;2.134;2022-10-31T05:17:56;100466.84;;;14.41;90.39
70781;BME280;59514;48.810;2.134;2022-10-31T05:20:26;100457.16;;;14.45;90.44
70781;BME280;59514;48.810;2.134;2022-10-31T05:22:54;100452.09;;;14.49;90.12
70781;BME280;59514;48.810;2.134;2022-10-31T05:25:21;100457.81;;;14.52;90.24
70781;BME280;59514;48.810;2.134;2022-10-31T05:27:48;100452.97;;;14.54;89.47
70781;BME280;59514;48.810;2.134;2022-10-31T05:30:16;100447.00;;;14.52;90.12
70781;BME280;59514;48.810;2.134;2022-10-31T05:32:44;100447.31;;;14.56;90.16
70781;BME280;59514;48.810;2.134;2022-10-31T05:35:12;100450.31;;;14.59;89.99
70781;BME280;59514;48.810;2.134;2022-10-31T05:37:38;100451.97;;;14.60;90.44
70781;BME280;59514;48.810;2.134;2022-10-31T05:40:05;100452.53;;;14.62;89.45
70781;BME280;59514;48.810;2.134;2022-10-31T05:42:31;100460.97;;;14.66;89.62
70781;BME280;59514;48.810;2.134;2022-10-31T05:44:56;100455.31;;;14.67;89.90
70781;BME280;59514;48.810;2.134;2022-10-31T05:47:22;100455.06;;;14.69;89.80
70781;BME280;59514;48.810;2.134;2022-10-31T05:49:47;100454.00;;;14.70;89.48
70781;BME280;59514;48.810;2.134;2022-10-31T05:52:13;100455.06;;;14.69;89.74
70781;BME280;59514;48.810;2.134;2022-10-31T05:54:38;100443.34;;;14.63;89.92
70781;BME280;59514;48.810;2.134;2022-10-31T05:57:04;100442.56;;;14.63;89.98
70781;BME280;59514;48.810;2.134;2022-10-31T05:59:29;100439.59;;;14.64;90.71
70781;BME280;59514;48.810;2.134;2022-10-31T06:01:54;100436.63;;;14.66;90.43
70781;BME280;59514;48.810;2.134;2022-10-31T06:04:20;100430.91;;;14.62;90.23
70781;BME280;59514;48.810;2.134;2022-10-31T06:06:45;100435.44;;;14.57;90.59
70781;BME280;59514;48.810;2.134;2022-10-31T06:09:10;100434.06;;;14.54;90.81
70781;BME280;59514;48.810;2.134;2022-10-31T06:11:36;100436.50;;;14.56;90.31
70781;BME280;59514;48.810;2.134;2022-10-31T06:14:01;100431.59;;;14.53;90.66
70781;BME280;59514;48.810;2.134;2022-10-31T06:16:27;100431.28;;;14.49;91.07
70781;BME280;59514;48.810;2.134;2022-10-31T06:18:52;100422.84;;;14.46;91.27
70781;BME280;59514;48.810;2.134;2022-10-31T06:21:17;100423.66;;;14.46;91.29
70781;BME280;59514;48.810;2.134;2022-10-31T06:23:43;100428.09;;;14.52;91.28
70781;BME280;59514;48.810;2.134;2022-10-31T06:26:08;100426.50;;;14.56;90.30
70781;BME280;59514;48.810;2.134;2022-10-31T06:28:34;100419.50;;;14.55;90.72
70781;BME280;59514;48.810;2.134;2022-10-31T06:30:59;100415.09;;;14.49;91.41
70781;BME280;59514;48.810;2.134;2022-10-31T06:33:27;100416.97;;;14.49;91.01
70781;BME280;59514;48.810;2.134;2022-10-31T06:35:52;100411.81;;;14.47;91.20
70781;BME280;59514;48.810;2.134;2022-10-31T06:38:18;100412.25;;;14.39;91.41
70781;BME280;59514;48.810;2.134;2022-10-31T06:40:43;100412.47;;;14.38;91.76
70781;BME280;59514;48.810;2.134;2022-10-31T06:43:08;100398.97;;;14.38;91.43
70781;BME280;59514;48.810;2.134;2022-10-31T06:45:36;100402.47;;;14.38;92.05
70781;BME280;59514;48.810;2.134;2022-10-31T06:48:01;100396.09;;;14.44;91.30
70781;BME280;59514;48.810;2.134;2022-10-31T06:50:26;100397.78;;;14.50;90.98
70781;BME280;59514;48.810;2.134;2022-10-31T06:52:56;100401.22;;;14.46;90.88
70781;BME280;59514;48.810;2.134;2022-10-31T06:55:23;100406.97;;;14.49;90.80
70781;BME280;59514;48.810;2.134;2022-10-31T06:57:57;100400.50;;;14.50;91.17
70781;BME280;59514;48.810;2.134;2022-10-31T07:00:24;100395.59;;;14.47;90.71
70781;BME280;59514;48.810;2.134;2022-10-31T07:03:00;100389.13;;;14.48;91.25
70781;BME280;59514;48.810;2.134;2022-10-31T07:05:27;100388.38;;;14.53;90.35
70781;BME280;59514;48.810;2.134;2022-10-31T07:07:57;100376.75;;;14.52;90.66
70781;BME280;59514;48.810;2.134;2022-10-31T07:10:24;100378.97;;;14.55;90.22
70781;BME280;59514;48.810;2.134;2022-10-31T07:12:55;100381.66;;;14.55;90.31
70781;BME280;59514;48.810;2.134;2022-10-31T07:15:21;100384.97;;;14.62;90.00
70781;BME280;59514;48.810;2.134;2022-10-31T07:17:46;100395.06;;;14.67;90.06
70781;BME280;59514;48.810;2.134;2022-10-31T07:20:12;100389.94;;;14.71;91.17
70781;BME280;59514;48.810;2.134;2022-10-31T07:22:37;100384.81;;;14.69;89.96
70781;BME280;59514;48.810;2.134;2022-10-31T07:25:04;100384.25;;;14.67;90.37
70781;BME280;59514;48.810;2.134;2022-10-31T07:27:38;100382.66;;;14.71;90.46
70781;BME280;59514;48.810;2.134;2022-10-31T07:30:04;100382.16;;;14.74;90.13
70781;BME280;59514;48.810;2.134;2022-10-31T07:32:44;100378.31;;;14.70;90.62
70781;BME280;59514;48.810;2.134;2022-10-31T07:35:12;100381.09;;;14.75;90.27
70781;BME280;59514;48.810;2.134;2022-10-31T07:37:38;100375.19;;;14.78;90.60
70781;BME280;59514;48.810;2.134;2022-10-31T07:40:05;100383.03;;;14.80;90.20
70781;BME280;59514;48.810;2.134;2022-10-31T07:42:35;100385.72;;;14.80;90.98
70781;BME280;59514;48.810;2.134;2022-10-31T07:45:01;100371.41;;;14.79;90.39
70781;BME280;59514;48.810;2.134;2022-10-31T07:47:26;100381.44;;;14.84;90.36
70781;BME280;59514;48.810;2.134;2022-10-31T07:49:52;100374.47;;;14.88;90.86
70781;BME280;59514;48.810;2.134;2022-10-31T07:52:17;100376.13;;;14.89;90.80
70781;BME280;59514;48.810;2.134;2022-10-31T07:54:42;100376.59;;;14.86;90.34
70781;BME280;59514;48.810;2.134;2022-10-31T07:57:08;100373.69;;;14.87;90.64
70781;BME280;59514;48.810;2.134;2022-10-31T07:59:33;100378.31;;;14.92;90.61
70781;BME280;59514;48.810;2.134;2022-10-31T08:01:58;100377.28;;;14.98;90.20
70781;BME280;59514;48.810;2.134;2022-10-31T08:04:24;100383.53;;;14.98;90.21
70781;BME280;59514;48.810;2.134;2022-10-31T08:06:49;100377.56;;;14.96;90.44
70781;BME280;59514;48.810;2.134;2022-10-31T08:09:14;100372.44;;;15.00;90.30
70781;BME280;59514;48.810;2.134;2022-10-31T08:11:39;100377.84;;;15.00;90.71
70781;BME280;59514;48.810;2.134;2022-10-31T08:14:05;100374.41;;;15.04;90.62
70781;BME280;59514;48.810;2.134;2022-10-31T08:16:30;100378.78;;;15.10;90.05
70781;BME280;59514;48.810;2.134;2022-10-31T08:18:55;100363.41;;;15.11;89.87
70781;BME280;59514;48.810;2.134;2022-10-31T08:21:21;100364.75;;;15.13;89.59
70781;BME280;59514;48.810;2.134;2022-10-31T08:23:47;100359.91;;;15.15;89.63
70781;BME280;59514;48.810;2.134;2022-10-31T08:26:12;100351.50;;;15.12;89.21
70781;BME280;59514;48.810;2.134;2022-10-31T08:28:37;100339.63;;;15.13;89.03
70781;BME280;59514;48.810;2.134;2022-10-31T08:31:02;100326.66;;;15.15;89.36
70781;BME280;59514;48.810;2.134;2022-10-31T08:33:28;100331.25;;;15.14;89.05
70781;BME280;59514;48.810;2.134;2022-10-31T08:35:53;100332.09;;;15.20;90.04
70781;BME280;59514;48.810;2.134;2022-10-31T08:38:18;100322.41;;;15.24;89.49
70781;BME280;59514;48.810;2.134;2022-10-31T08:40:48;100322.97;;;15.26;88.80
70781;BME280;59514;48.810;2.134;2022-10-31T08:43:15;100317.84;;;15.29;89.22
70781;BME280;59514;48.810;2.134;2022-10-31T08:45:41;100315.47;;;15.33;88.56
70781;BME280;59514;48.810;2.134;2022-10-31T08:48:15;100314.44;;;15.39;88.95
70781;BME280;59514;48.810;2.134;2022-10-31T08:50:41;100309.09;;;15.44;88.47
70781;BME280;59514;48.810;2.134;2022-10-31T08:53:11;100302.91;;;15.48;88.18
70781;BME280;59514;48.810;2.134;2022-10-31T08:55:37;100296.97;;;15.51;88.14
70781;BME280;59514;48.810;2.134;2022-10-31T08:58:06;100294.00;;;15.53;88.13
70781;BME280;59514;48.810;2.134;2022-10-31T09:00:33;100288.59;;;15.53;88.11
70781;BME280;59514;48.810;2.134;2022-10-31T09:03:01;100297.53;;;15.53;88.19
70781;BME280;59514;48.810;2.134;2022-10-31T09:05:27;100280.47;;;15.53;88.50
70781;BME280;59514;48.810;2.134;2022-10-31T09:07:57;100274.56;;;15.56;88.13
70781;BME280;59514;48.810;2.134;2022-10-31T09:10:24;100274.34;;;15.63;87.90
70781;BME280;59514;48.810;2.134;2022-10-31T09:12:59;100278.94;;;15.67;87.77
70781;BME280;59514;48.810;2.134;2022-10-31T09:15:26;100275.19;;;15.73;87.51
70781;BME280;59514;48.810;2.134;2022-10-31T09:17:52;100266.00;;;15.74;87.15
70781;BME280;59514;48.810;2.134;2022-10-31T09:20:18;100259.28;;;15.77;87.08
70781;BME280;59514;48.810;2.134;2022-10-31T09:22:44;100256.31;;;15.83;86.82
70781;BME280;59514;48.810;2.134;2022-10-31T09:25:09;100250.94;;;15.88;86.59
70781;BME280;59514;48.810;2.134;2022-10-31T09:27:34;100237.69;;;15.92;86.36
70781;BME280;59514;48.810;2.134;2022-10-31T09:30:00;100243.38;;;15.95;86.55
70781;BME280;59514;48.810;2.134;2022-10-31T09:32:25;100233.94;;;15.98;86.06
70781;BME280;59514;48.810;2.134;2022-10-31T09:34:51;100228.78;;;16.01;85.77
70781;BME280;59514;48.810;2.134;2022-10-31T09:37:16;100225.81;;;16.03;85.79
70781;BME280;59514;48.810;2.134;2022-10-31T09:39:41;100217.72;;;16.08;85.27
70781;BME280;59514;48.810;2.134;2022-10-31T09:45:19;100219.66;;;16.17;84.71
70781;BME280;59514;48.810;2.134;2022-10-31T09:50:41;100215.88;;;16.23;84.75
70781;BME280;59514;48.810;2.134;2022-10-31T09:53:17;100214.00;;;16.29;83.91
70781;BME280;59514;48.810;2.134;2022-10-31T09:55:47;100201.84;;;16.31;84.03
70781;BME280;59514;48.810;2.134;2022-10-31T09:58:24;100202.38;;;16.33;83.98
70781;BME280;59514;48.810;2.134;2022-10-31T10:00:51;100205.63;;;16.35;83.79
70781;BME280;59514;48.810;2.134;2022-10-31T10:03:44;100195.34;;;16.42;83.71
70781;BME280;59514;48.810;2.134;2022-10-31T10:06:21;100185.09;;;16.55;83.13
70781;BME280;59514;48.810;2.134;2022-10-31T10:08:48;100187.56;;;16.61;82.47
70781;BME280;59514;48.810;2.134;2022-10-31T10:19:44;100144.19;;;16.71;81.61
70781;BME280;59514;48.810;2.134;2022-10-31T10:22:36;100143.94;;;16.78;81.64
70781;BME280;59514;48.810;2.134;2022-10-31T10:30:34;100137.69;;;16.92;80.23
70781;BME280;59514;48.810;2.134;2022-10-31T10:33:11;100140.13;;;16.99;80.20
70781;BME280;59514;48.810;2.134;2022-10-31T10:35:48;100137.16;;;17.05;79.54
70781;BME280;59514;48.810;2.134;2022-10-31T10:38:26;100135.25;;;17.11;79.24
70781;BME280;59514;48.810;2.134;2022-10-31T10:40:53;100135.75;;;17.18;78.61
70781;BME280;59514;48.810;2.134;2022-10-31T10:43:36;100122.72;;;17.30;78.04
70781;BME280;59514;48.810;2.134;2022-10-31T10:49:17;100093.66;;;17.46;78.25
70781;BME280;59514;48.810;2.134;2022-10-31T10:54:49;100065.13;;;17.48;77.27
70781;BME280;59514;48.810;2.134;2022-10-31T10:57:30;100053.47;;;17.48;77.16
70781;BME280;59514;48.810;2.134;2022-10-31T11:00:01;100056.19;;;17.48;76.36
70781;BME280;59514;48.810;2.134;2022-10-31T11:02:32;100056.47;;;17.51;76.51
70781;BME280;59514;48.810;2.134;2022-10-31T11:04:59;100065.69;;;17.55;75.88
70781;BME280;59514;48.810;2.134;2022-10-31T11:07:25;100055.31;;;17.62;75.41
70781;BME280;59514;48.810;2.134;2022-10-31T11:10:04;100053.09;;;17.74;74.67
70781;BME280;59514;48.810;2.134;2022-10-31T11:12:32;100051.69;;;17.82;74.25
70781;BME280;59514;48.810;2.134;2022-10-31T11:15:05;100054.41;;;17.87;74.26
70781;BME280;59514;48.810;2.134;2022-10-31T11:17:39;100056.28;;;17.86;72.95
70781;BME280;59514;48.810;2.134;2022-10-31T11:22:36;100051.38;;;17.88;73.57
70781;BME280;59514;48.810;2.134;2022-10-31T11:27:45;100045.41;;;17.91;74.50
70781;BME280;59514;48.810;2.134;2022-10-31T11:30:13;100036.16;;;17.92;74.31
70781;BME280;59514;48.810;2.134;2022-10-31T11:32:50;100026.34;;;17.96;74.51
70781;BME280;59514;48.810;2.134;2022-10-31T11:35:20;100020.91;;;18.01;74.82
70781;BME280;59514;48.810;2.134;2022-10-31T11:37:48;100026.56;;;18.05;74.11
70781;BME280;59514;48.810;2.134;2022-10-31T11:40:20;100012.69;;;18.06;74.02
70781;BME280;59514;48.810;2.134;2022-10-31T11:42:46;100015.94;;;18.08;73.72
70781;BME280;59514;48.810;2.134;2022-10-31T11:45:17;100010.75;;;18.12;73.13
70781;BME280;59514;48.810;2.134;2022-10-31T11:47:47;100011.81;;;18.16;73.17
70781;BME280;59514;48.810;2.134;2022-10-31T11:50:20;100005.78;;;18.24;73.32
70781;BME280;59514;48.810;2.134;2022-10-31T11:52:46;100002.75;;;18.31;72.72
70781;BME280;59514;48.810;2.134;2022-10-31T11:57:55;100002.63;;;18.46;72.50
70781;BME280;59514;48.810;2.134;2022-10-31T12:00:22;100002.59;;;18.51;72.03
70781;BME280;59514;48.810;2.134;2022-10-31T12:02:48;99999.00;;;18.55;71.65
70781;BME280;59514;48.810;2.134;2022-10-31T12:05:23;100005.97;;;18.66;71.89
70781;BME280;59514;48.810;2.134;2022-10-31T12:07:50;99998.53;;;18.77;71.41
70781;BME280;59514;48.810;2.134;2022-10-31T12:10:16;99995.28;;;18.75;71.75
70781;BME280;59514;48.810;2.134;2022-10-31T12:15:35;99971.34;;;18.77;72.10
70781;BME280;59514;48.810;2.134;2022-10-31T12:26:38;99960.50;;;18.96;70.97
70781;BME280;59514;48.810;2.134;2022-10-31T12:34:56;99930.94;;;19.31;68.82
70781;BME280;59514;48.810;2.134;2022-10-31T12:38:17;99933.84;;;19.40;68.64
70781;BME280;59514;48.810;2.134;2022-10-31T12:40:33;99931.72;;;19.55;68.57
70781;BME280;59514;48.810;2.134;2022-10-31T12:45:57;99907.00;;;19.70;67.83
70781;BME280;59514;48.810;2.134;2022-10-31T12:51:39;99904.72;;;20.55;65.07
70781;BME280;59514;48.810;2.134;2022-10-31T12:59:53;99926.13;;;19.65;68.33
70781;BME280;59514;48.810;2.134;2022-10-31T13:02:34;99907.34;;;19.64;68.68
70781;BME280;59514;48.810;2.134;2022-10-31T13:05:12;99907.22;;;19.74;68.53
70781;BME280;59514;48.810;2.134;2022-10-31T13:07:43;99902.72;;;19.97;67.78
70781;BME280;59514;48.810;2.134;2022-10-31T13:10:20;99888.00;;;19.98;67.96
70781;BME280;59514;48.810;2.134;2022-10-31T13:12:49;99871.97;;;19.96;68.08
70781;BME280;59514;48.810;2.134;2022-10-31T13:17:49;99873.78;;;20.01;67.80
70781;BME280;59514;48.810;2.134;2022-10-31T13:20:32;99882.06;;;19.96;68.12
70781;BME280;59514;48.810;2.134;2022-10-31T13:23:14;99865.44;;;19.78;68.47
70781;BME280;59514;48.810;2.134;2022-10-31T13:25:46;99864.59;;;19.64;69.01
70781;BME280;59514;48.810;2.134;2022-10-31T13:28:31;99851.66;;;19.56;69.88
70781;BME280;59514;48.810;2.134;2022-10-31T13:31:00;99844.56;;;19.55;69.88
70781;BME280;59514;48.810;2.134;2022-10-31T13:33:31;99849.81;;;19.52;70.17
70781;BME280;59514;48.810;2.134;2022-10-31T13:41:28;99832.31;;;19.71;70.01
70781;BME280;59514;48.810;2.134;2022-10-31T13:44:26;99826.78;;;19.76;70.50
70781;BME280;59514;48.810;2.134;2022-10-31T13:46:53;99819.53;;;19.72;70.07
70781;BME280;59514;48.810;2.134;2022-10-31T13:54:37;99804.75;;;19.59;70.81
70781;BME280;59514;48.810;2.134;2022-10-31T13:57:07;99799.91;;;19.56;71.04
70781;BME280;59514;48.810;2.134;2022-10-31T13:59:47;99797.56;;;19.50;71.09
70781;BME280;59514;48.810;2.134;2022-10-31T14:02:21;99797.34;;;19.46;71.50
70781;BME280;59514;48.810;2.134;2022-10-31T14:04:52;99783.22;;;19.44;71.89
70781;BME280;59514;48.810;2.134;2022-10-31T14:07:21;99778.00;;;19.61;71.38
70781;BME280;59514;48.810;2.134;2022-10-31T14:12:23;99767.59;;;19.82;70.47
70781;BME280;59514;48.810;2.134;2022-10-31T14:14:56;99768.38;;;19.83;70.35
70781;BME280;59514;48.810;2.134;2022-10-31T14:17:25;99764.53;;;19.84;70.48
70781;BME280;59514;48.810;2.134;2022-10-31T14:22:43;99760.69;;;19.85;70.62
70781;BME280;59514;48.810;2.134;2022-10-31T14:27:53;99750.19;;;19.64;71.96
70781;BME280;59514;48.810;2.134;2022-10-31T14:30:21;99754.63;;;19.60;72.16
70781;BME280;59514;48.810;2.134;2022-10-31T14:32:58;99746.72;;;19.59;72.09
70781;BME280;59514;48.810;2.134;2022-10-31T14:35:30;99748.56;;;19.63;72.08
70781;BME280;59514;48.810;2.134;2022-10-31T14:38:12;99742.03;;;19.64;72.21
70781;BME280;59514;48.810;2.134;2022-10-31T14:44:11;99757.84;;;19.62;72.19
70781;BME280;59514;48.810;2.134;2022-10-31T14:47:02;99753.69;;;19.65;72.02
70781;BME280;59514;48.810;2.134;2022-10-31T14:52:14;99750.19;;;19.64;71.75
70781;BME280;59514;48.810;2.134;2022-10-31T14:54:49;99745.84;;;19.63;71.19
70781;BME280;59514;48.810;2.134;2022-10-31T14:57:20;99745.34;;;19.61;71.28
70781;BME280;59514;48.810;2.134;2022-10-31T14:59:54;99749.44;;;19.59;71.72
70781;BME280;59514;48.810;2.134;2022-10-31T15:02:39;99743.81;;;19.55;71.84